Cape Ray — KAFI — position and weather

sailwx.info

Track history (hours):
 
Tides and Currents Weather Stations Pressure Air Temp Water Temp Dewpoint Dewpoint Depression Visibility Wind Speed Wind Dir Waves Ship Positions

Cape Ray

Owner: MARITIME ADMINISTRATION, WASHINGTON, DC. More information available from US FCC via Universal Licensing System and Coast Guard Vessel Documentation Center.

Last reported at 2018-Jun-09 06:16 UTC. Time now 2018-Jul-22 16:34 UTC.
Position N 30°52' E 032°19'.
Warning: this ship's position is 43 days out of date.

Length 198 m; draft 8 m.

Type: Cargo ship. MMSI: 366841000.

Date/timePositionNaut miles runAvg speedWind from/ knotsBaromVisibWave heightAir tempDewpointWater temp
2018-Jun-09 06:16N 30°52' E 032°19'22013.9
2018-Jun-08 14:29N 33°32' E 029°19'2217.7
2018-Jun-08 13:16N 33°45' E 028°59'417.7
2018-Jun-08 13:00N 33°48' E 028°55'1017.8
2018-Jun-08 12:28N 33°54' E 028°46'22716.6
2018-Jun-07 22:51N 35°32' E 024°37'617.2
2018-Jun-07 22:30N 35°31' E 024°30'1016.2
2018-Jun-07 21:54N 35°31' E 024°18'5 0.4
2018-Jun-07 10:38N 35°29' E 024°12'2 7.8
2018-Jun-07 10:20N 35°30' E 024°15'1 0.3
2018-Jun-07 06:39N 35°29' E 024°16'1 0.6
2018-Jun-07 04:37N 35°30' E 024°14'0 0.6
2018-Jun-07 04:28N 35°30' E 024°14'0 1.1
2018-Jun-07 04:00N 35°30' E 024°14'2 4.7
2018-Jun-07 03:30N 35°32' E 024°15'610.1
2018-Jun-07 02:54N 35°38' E 024°14'512.3
2018-Jun-07 02:30N 35°43' E 024°12'  
2018-Jun-04 03:21N 36°57' E 002°54'1716.0
2018-Jun-04 02:16N 36°55' E 002°33'4917.7
2018-Jun-03 23:28N 36°47' E 001°32'918.2
2018-Jun-03 23:00N 36°45' E 001°22'918.4
2018-Jun-03 22:30N 36°44' E 001°11'2318.1
2018-Jun-03 21:13N 36°40' E 000°42'417.7
2018-Jun-03 21:00N 36°39' E 000°37'917.6
2018-Jun-03 20:30N 36°38' E 000°26'917.6
2018-Jun-03 19:59N 36°36' E 000°15'917.0
2018-Jun-03 19:28N 36°35' E 000°04'3717.1
2018-Jun-03 17:19N 36°29' W 000°41'517.4
2018-Jun-03 17:00N 36°28' W 000°48'20117.9
2018-Jun-03 05:45N 36°02' W 004°55'818.4
2018-Jun-03 05:20N 36°01' W 005°05'618.9
2018-Jun-03 05:00N 36°00' W 005°12'1019.8
2018-Jun-03 04:31N 35°58' W 005°24'  
Track history (hours):
 
Tides and Currents Weather Stations Pressure Air Temp Water Temp Dewpoint Dewpoint Depression Visibility Wind Speed Wind Dir Waves Ship Positions

Cape Ray

Owner: MARITIME ADMINISTRATION, WASHINGTON, DC. More information available from US FCC via Universal Licensing System and Coast Guard Vessel Documentation Center.

Last reported at 2018-Jun-09 06:16 UTC. Time now 2018-Jul-22 16:34 UTC.
Position N 30°52' E 032°19'.
Warning: this ship's position is 43 days out of date.

Length 198 m; draft 8 m.

Type: Cargo ship. MMSI: 366841000.

Date/timePositionNaut miles runAvg speedWind from/ knotsBaromVisibWave heightAir tempDewpointWater temp
2018-Jun-09 06:16N 30°52' E 032°19'22013.9
2018-Jun-08 14:29N 33°32' E 029°19'2217.7
2018-Jun-08 13:16N 33°45' E 028°59'417.7
2018-Jun-08 13:00N 33°48' E 028°55'1017.8
2018-Jun-08 12:28N 33°54' E 028°46'22716.6
2018-Jun-07 22:51N 35°32' E 024°37'617.2
2018-Jun-07 22:30N 35°31' E 024°30'1016.2
2018-Jun-07 21:54N 35°31' E 024°18'5 0.4
2018-Jun-07 10:38N 35°29' E 024°12'2 7.8
2018-Jun-07 10:20N 35°30' E 024°15'1 0.3
2018-Jun-07 06:39N 35°29' E 024°16'1 0.6
2018-Jun-07 04:37N 35°30' E 024°14'0 0.6
2018-Jun-07 04:28N 35°30' E 024°14'0 1.1
2018-Jun-07 04:00N 35°30' E 024°14'2 4.7
2018-Jun-07 03:30N 35°32' E 024°15'610.1
2018-Jun-07 02:54N 35°38' E 024°14'512.3
2018-Jun-07 02:30N 35°43' E 024°12'  
2018-Jun-04 03:21N 36°57' E 002°54'1716.0
2018-Jun-04 02:16N 36°55' E 002°33'4917.7
2018-Jun-03 23:28N 36°47' E 001°32'918.2
2018-Jun-03 23:00N 36°45' E 001°22'918.4
2018-Jun-03 22:30N 36°44' E 001°11'2318.1
2018-Jun-03 21:13N 36°40' E 000°42'417.7
2018-Jun-03 21:00N 36°39' E 000°37'917.6
2018-Jun-03 20:30N 36°38' E 000°26'917.6
2018-Jun-03 19:59N 36°36' E 000°15'917.0
2018-Jun-03 19:28N 36°35' E 000°04'3717.1
2018-Jun-03 17:19N 36°29' W 000°41'517.4
2018-Jun-03 17:00N 36°28' W 000°48'20117.9
2018-Jun-03 05:45N 36°02' W 004°55'818.4
2018-Jun-03 05:20N 36°01' W 005°05'618.9
2018-Jun-03 05:00N 36°00' W 005°12'1019.8
2018-Jun-03 04:31N 35°58' W 005°24'  

Dump ship's entire track history